createdAt,value
2022-09-13T00:01:00.709Z,15.70
2022-09-13T00:03:28.627Z,15.70
2022-09-13T00:05:55.699Z,15.70
2022-09-13T00:08:22.809Z,15.70
2022-09-13T00:10:49.970Z,15.70
2022-09-13T00:13:17.730Z,15.70
2022-09-13T00:15:49.978Z,15.70
2022-09-13T00:18:18.786Z,15.70
2022-09-13T00:20:46.241Z,15.70
2022-09-13T00:23:13.901Z,15.70
2022-09-13T00:25:40.953Z,15.70
2022-09-13T00:28:08.078Z,15.70
2022-09-13T00:30:35.452Z,15.70
2022-09-13T00:33:04.971Z,15.70
2022-09-13T00:35:32.407Z,15.70
2022-09-13T00:38:01.039Z,15.60
2022-09-13T00:40:30.544Z,15.60
2022-09-13T00:42:57.599Z,15.70
2022-09-13T00:45:24.792Z,15.70
2022-09-13T00:48:05.437Z,15.60
2022-09-13T00:50:41.732Z,15.60
2022-09-13T00:53:17.639Z,15.60
2022-09-13T00:55:51.040Z,15.60
2022-09-13T00:58:27.231Z,15.60
2022-09-13T01:00:58.354Z,15.60
2022-09-13T01:03:28.900Z,15.50
2022-09-13T01:06:05.707Z,15.50
2022-09-13T01:08:33.671Z,15.50
2022-09-13T01:11:02.309Z,15.50
2022-09-13T01:13:33.489Z,15.50
2022-09-13T01:16:01.368Z,15.50
2022-09-13T01:18:28.400Z,15.50
2022-09-13T01:21:54.380Z,15.40
2022-09-13T01:24:51.297Z,15.40
2022-09-13T01:27:51.452Z,15.40
2022-09-13T01:30:22.972Z,15.40
2022-09-13T01:33:28.088Z,15.40
2022-09-13T01:36:16.392Z,15.30
2022-09-13T01:39:05.807Z,15.40
2022-09-13T01:42:01.476Z,15.30
2022-09-13T01:45:02.983Z,15.30
2022-09-13T01:48:01.438Z,15.30
2022-09-13T01:50:41.931Z,15.30
2022-09-13T01:53:41.557Z,15.20
2022-09-13T01:56:31.740Z,15.20
2022-09-13T01:59:22.279Z,15.20
2022-09-13T02:02:05.250Z,15.20
2022-09-13T02:04:41.626Z,15.20
2022-09-13T02:07:20.762Z,15.20
2022-09-13T02:09:58.436Z,15.10
2022-09-13T02:12:29.171Z,15.10
2022-09-13T02:15:18.764Z,15.10
2022-09-13T02:17:59.747Z,15.10
2022-09-13T02:20:34.140Z,15.10
2022-09-13T02:23:09.221Z,15.10
2022-09-13T02:25:39.511Z,15.10
2022-09-13T02:28:11.930Z,15.10
2022-09-13T02:30:47.525Z,15.10
2022-09-13T02:33:19.285Z,15.10
2022-09-13T02:35:56.630Z,15.10
2022-09-13T02:38:31.392Z,15.10
2022-09-13T02:41:07.264Z,15.10
2022-09-13T02:43:46.947Z,15.10
2022-09-13T02:46:57.459Z,15.10
2022-09-13T02:50:06.313Z,15.10
2022-09-13T02:52:58.094Z,15.10
2022-09-13T02:55:46.449Z,15.10
2022-09-13T02:58:54.575Z,15.10
2022-09-13T03:01:21.744Z,15.10
2022-09-13T03:03:49.354Z,15.10
2022-09-13T03:06:28.315Z,15.20
2022-09-13T03:09:00.110Z,15.20
2022-09-13T03:12:04.786Z,15.20
2022-09-13T03:14:49.269Z,15.20
2022-09-13T03:17:39.644Z,15.20
2022-09-13T03:20:41.961Z,15.20
2022-09-13T03:23:36.144Z,15.20
2022-09-13T03:26:27.299Z,15.30
2022-09-13T03:29:46.717Z,15.30
2022-09-13T03:32:33.109Z,15.20
2022-09-13T03:35:15.416Z,15.20
2022-09-13T03:38:02.963Z,15.20
2022-09-13T03:40:43.484Z,15.20
2022-09-13T03:43:23.658Z,15.20
2022-09-13T03:45:58.980Z,15.20
2022-09-13T03:48:29.879Z,15.20
2022-09-13T03:50:57.126Z,15.20
2022-09-13T03:53:27.599Z,15.10
2022-09-13T03:55:54.852Z,15.10
2022-09-13T03:58:22.330Z,15.10
2022-09-13T04:00:49.598Z,15.10
2022-09-13T04:03:16.530Z,15.00
2022-09-13T04:05:44.073Z,15.00
2022-09-13T04:08:10.833Z,15.10
2022-09-13T04:10:38.157Z,15.10
2022-09-13T04:13:05.437Z,15.10
2022-09-13T04:15:32.468Z,15.10
2022-09-13T04:18:00.945Z,15.10
2022-09-13T04:20:29.256Z,15.20
2022-09-13T04:22:57.699Z,15.30
2022-09-13T04:25:24.907Z,15.30
2022-09-13T04:27:57.096Z,15.30
2022-09-13T04:30:23.942Z,15.40
2022-09-13T04:32:50.957Z,15.40
2022-09-13T04:35:20.071Z,15.50
2022-09-13T04:37:47.272Z,15.50
2022-09-13T04:40:14.532Z,15.60
2022-09-13T04:42:46.771Z,15.60
2022-09-13T04:45:14.048Z,15.70
2022-09-13T04:47:41.069Z,15.70
2022-09-13T04:50:08.300Z,15.80
2022-09-13T04:52:35.358Z,15.80
2022-09-13T04:55:03.044Z,15.80
2022-09-13T04:57:29.930Z,15.90
2022-09-13T04:59:56.872Z,15.90
2022-09-13T05:02:24.012Z,15.90
2022-09-13T05:04:50.959Z,15.90
2022-09-13T05:07:18.127Z,16.00
2022-09-13T05:09:45.104Z,16.00
2022-09-13T05:12:11.906Z,16.00
2022-09-13T05:14:38.999Z,16.10
2022-09-13T05:17:05.833Z,16.10
2022-09-13T05:19:33.092Z,16.20
2022-09-13T05:21:59.904Z,16.20
2022-09-13T05:24:27.832Z,16.30
2022-09-13T05:26:57.928Z,16.20
2022-09-13T05:29:24.761Z,16.40
2022-09-13T05:31:51.611Z,16.50
2022-09-13T05:34:19.676Z,16.60
2022-09-13T05:36:51.656Z,16.70
2022-09-13T05:39:34.174Z,16.90
2022-09-13T05:42:10.921Z,16.90
2022-09-13T05:44:37.725Z,16.90
2022-09-13T05:47:05.581Z,17.00
2022-09-13T05:49:32.499Z,17.10
2022-09-13T05:51:59.309Z,17.10
2022-09-13T05:54:26.138Z,17.20
2022-09-13T05:56:57.566Z,17.20
2022-09-13T05:59:24.490Z,17.30
2022-09-13T06:01:52.059Z,17.30
2022-09-13T06:04:19.121Z,17.40
2022-09-13T06:06:45.915Z,17.50
2022-09-13T06:09:13.205Z,17.50
2022-09-13T06:11:40.421Z,17.50
2022-09-13T06:14:07.484Z,17.50
2022-09-13T06:16:34.569Z,17.40
2022-09-13T06:19:01.529Z,17.40
2022-09-13T06:21:29.463Z,17.30
2022-09-13T06:23:56.860Z,17.30
2022-09-13T06:29:17.531Z,17.10
2022-09-13T06:31:45.413Z,17.10
2022-09-13T06:34:15.461Z,17.00
2022-09-13T06:36:43.269Z,17.00
2022-09-13T06:39:10.109Z,17.00
2022-09-13T06:41:37.801Z,16.90
2022-09-13T06:44:05.114Z,16.90
2022-09-13T06:46:34.376Z,16.80
2022-09-13T06:49:07.180Z,16.80
2022-09-13T06:51:35.644Z,16.70
2022-09-13T06:54:03.842Z,16.80
2022-09-13T06:56:36.643Z,16.80
2022-09-13T06:59:08.373Z,16.80
2022-09-13T07:01:41.672Z,16.80
2022-09-13T07:04:12.101Z,16.80
2022-09-13T07:06:42.820Z,16.90
2022-09-13T07:09:15.001Z,17.00
2022-09-13T07:11:42.567Z,17.00
2022-09-13T07:14:13.799Z,17.10
2022-09-13T07:16:40.868Z,17.10
2022-09-13T07:19:15.506Z,17.20
2022-09-13T07:21:42.516Z,17.30
2022-09-13T07:24:10.647Z,17.40
2022-09-13T07:26:38.152Z,17.50
2022-09-13T07:29:08.671Z,17.60
2022-09-13T07:31:41.706Z,17.70
2022-09-13T07:34:18.975Z,17.80
2022-09-13T07:36:49.414Z,17.80
2022-09-13T07:39:22.126Z,17.90
2022-09-13T07:41:50.075Z,17.90
2022-09-13T07:44:17.149Z,17.90
2022-09-13T07:46:44.241Z,17.90
2022-09-13T07:49:14.866Z,18.00
2022-09-13T07:51:43.755Z,18.10
2022-09-13T07:54:18.135Z,18.10
2022-09-13T07:56:45.766Z,18.10
2022-09-13T07:59:17.237Z,18.10
2022-09-13T08:01:47.434Z,18.00
2022-09-13T08:04:18.516Z,18.20
2022-09-13T08:06:46.759Z,18.40
2022-09-13T08:09:15.062Z,18.30
2022-09-13T08:11:49.679Z,18.40
2022-09-13T08:14:19.774Z,18.50
2022-09-13T08:16:47.696Z,18.60
2022-09-13T08:19:18.488Z,18.70
2022-09-13T08:21:46.931Z,18.80
2022-09-13T08:24:21.171Z,18.90
2022-09-13T08:26:49.238Z,19.00
2022-09-13T08:29:17.410Z,19.10
2022-09-13T08:31:45.157Z,19.20
2022-09-13T08:34:15.508Z,19.40
2022-09-13T08:36:44.046Z,19.50
2022-09-13T08:39:14.227Z,19.60
2022-09-13T08:41:49.408Z,19.80
2022-09-13T08:44:29.836Z,19.90
2022-09-13T08:47:38.241Z,20.00
2022-09-13T08:50:18.376Z,20.00
2022-09-13T08:53:26.178Z,20.10
2022-09-13T08:56:03.614Z,20.20
2022-09-13T08:58:51.812Z,20.40
2022-09-13T09:01:56.576Z,20.70
2022-09-13T09:04:35.314Z,21.00
2022-09-13T09:07:25.158Z,21.30
2022-09-13T09:10:19.196Z,21.80
2022-09-13T09:12:53.617Z,22.20
2022-09-13T09:15:30.055Z,22.60
2022-09-13T09:18:09.479Z,22.90
2022-09-13T09:20:51.363Z,23.30
2022-09-13T09:23:22.115Z,23.60
2022-09-13T09:25:56.547Z,23.80
2022-09-13T09:31:44.727Z,24.30
2022-09-13T09:34:25.853Z,24.60
2022-09-13T09:37:25.404Z,25.00
2022-09-13T09:39:55.702Z,25.30
2022-09-13T09:42:31.143Z,25.60
2022-09-13T09:45:06.680Z,25.90
2022-09-13T09:48:04.644Z,26.30
2022-09-13T09:50:39.670Z,26.90
2022-09-13T09:53:25.353Z,27.40
2022-09-13T09:56:02.682Z,27.80
2022-09-13T09:58:43.023Z,28.30
2022-09-13T10:01:24.447Z,28.90
2022-09-13T10:04:06.006Z,29.40
2022-09-13T10:06:33.741Z,30.00
2022-09-13T10:09:14.568Z,30.40
2022-09-13T10:11:54.415Z,30.60
2022-09-13T10:14:42.719Z,30.70
2022-09-13T10:17:26.804Z,30.80
2022-09-13T10:20:14.928Z,31.00
2022-09-13T10:22:42.940Z,31.10
2022-09-13T10:25:22.511Z,31.30
2022-09-13T10:27:58.760Z,31.50
2022-09-13T10:30:54.997Z,31.60
2022-09-13T10:33:42.627Z,31.50
2022-09-13T10:36:48.125Z,31.30
2022-09-13T10:39:20.278Z,31.10
2022-09-13T10:42:02.349Z,30.80
2022-09-13T10:44:41.472Z,30.50
2022-09-13T10:47:30.881Z,30.10
2022-09-13T10:50:22.908Z,29.90
2022-09-13T10:52:52.978Z,29.70
2022-09-13T10:55:19.701Z,29.60
2022-09-13T10:57:51.384Z,29.50
2022-09-13T11:00:31.178Z,29.30
2022-09-13T11:03:26.402Z,29.10
2022-09-13T11:06:11.907Z,29.00
2022-09-13T11:08:57.566Z,28.90
2022-09-13T11:11:57.814Z,28.60
2022-09-13T11:14:46.150Z,28.40
2022-09-13T11:17:36.728Z,28.10
2022-09-13T11:20:52.531Z,27.70
2022-09-13T11:23:35.709Z,27.30
2022-09-13T11:26:09.977Z,27.00
2022-09-13T11:28:58.765Z,26.80
2022-09-13T11:31:50.853Z,26.50
2022-09-13T11:34:37.737Z,26.30
2022-09-13T11:37:39.928Z,26.10
2022-09-13T11:41:06.284Z,26.00
2022-09-13T11:44:04.049Z,25.80
2022-09-13T11:47:03.445Z,25.60
2022-09-13T11:50:21.526Z,25.40
2022-09-13T11:53:30.275Z,25.20
2022-09-13T11:56:32.402Z,25.00
2022-09-13T11:59:35.092Z,25.00
2022-09-13T12:02:45.686Z,24.60
2022-09-13T12:05:24.283Z,24.50
2022-09-13T12:08:05.273Z,24.30
2022-09-13T12:11:04.165Z,24.30
2022-09-13T12:13:53.197Z,24.10
2022-09-13T12:16:35.928Z,24.10
2022-09-13T12:19:19.454Z,24.00
2022-09-13T12:21:57.352Z,23.90
2022-09-13T12:24:42.760Z,23.80
2022-09-13T12:27:14.171Z,23.80
2022-09-13T12:29:50.668Z,23.80
2022-09-13T12:32:18.940Z,23.80
2022-09-13T12:35:20.036Z,23.80
2022-09-13T12:38:41.285Z,23.70
2022-09-13T12:41:26.305Z,23.80
2022-09-13T12:44:42.574Z,23.80
2022-09-13T12:47:28.054Z,23.80
2022-09-13T12:53:36.740Z,23.70
2022-09-13T12:56:53.634Z,23.70
2022-09-13T12:59:44.692Z,23.70
2022-09-13T13:02:35.322Z,23.70
2022-09-13T13:05:27.757Z,23.70
2022-09-13T13:08:23.054Z,23.70
2022-09-13T13:11:13.063Z,23.70
2022-09-13T13:13:44.980Z,23.70
2022-09-13T13:16:31.378Z,23.70
2022-09-13T13:19:01.605Z,23.80
2022-09-13T13:21:39.313Z,23.80
2022-09-13T13:24:29.014Z,23.80
2022-09-13T13:27:40.578Z,23.90
2022-09-13T13:30:42.190Z,23.90
2022-09-13T13:33:23.229Z,23.90
2022-09-13T13:36:41.508Z,24.00
2022-09-13T13:39:44.858Z,24.10
2022-09-13T13:42:38.130Z,24.10
2022-09-13T13:45:24.214Z,24.10
2022-09-13T13:48:09.532Z,24.10
2022-09-13T13:51:17.812Z,24.20
2022-09-13T13:54:15.781Z,24.30
2022-09-13T13:57:31.771Z,24.30
2022-09-13T14:00:24.013Z,24.40
2022-09-13T14:02:50.863Z,24.50
2022-09-13T14:05:36.379Z,24.70
2022-09-13T14:08:51.664Z,24.70
2022-09-13T14:11:51.738Z,24.90
2022-09-13T14:15:02.873Z,25.20
2022-09-13T14:17:54.864Z,25.40
2022-09-13T14:20:22.587Z,25.60
2022-09-13T14:22:49.474Z,25.70
2022-09-13T14:25:23.052Z,25.90
2022-09-13T14:27:53.778Z,26.10
2022-09-13T14:33:30.937Z,26.80
2022-09-13T14:39:13.429Z,27.30
2022-09-13T14:41:40.470Z,27.40
2022-09-13T14:44:28.759Z,27.30
2022-09-13T14:47:26.965Z,27.30
2022-09-13T14:50:12.312Z,27.30
2022-09-13T14:52:54.523Z,27.20
2022-09-13T14:55:37.514Z,27.10
2022-09-13T14:58:07.654Z,27.00
2022-09-13T15:00:48.468Z,26.70
2022-09-13T15:03:18.163Z,26.70
2022-09-13T15:05:59.584Z,26.70
2022-09-13T15:08:27.496Z,26.60
2022-09-13T15:11:41.002Z,26.60
2022-09-13T15:14:28.611Z,26.50
2022-09-13T15:17:04.254Z,26.40
2022-09-13T15:19:50.561Z,26.40
2022-09-13T15:22:38.711Z,26.30
2022-09-13T15:25:06.087Z,26.40
2022-09-13T15:27:48.258Z,26.40
2022-09-13T15:30:32.081Z,26.30
2022-09-13T15:33:11.605Z,26.70
2022-09-13T15:35:47.049Z,26.80
2022-09-13T15:44:10.565Z,27.40
2022-09-13T15:46:56.127Z,27.60
2022-09-13T15:49:29.095Z,27.70
2022-09-13T15:52:21.554Z,27.90
2022-09-13T15:54:50.988Z,28.00
2022-09-13T15:57:28.907Z,28.10
2022-09-13T16:00:00.522Z,28.20
2022-09-13T16:02:41.174Z,28.30
2022-09-13T16:05:08.667Z,28.20
2022-09-13T16:07:35.469Z,28.10
2022-09-13T16:10:03.581Z,28.10
2022-09-13T16:12:30.368Z,27.90
2022-09-13T16:14:57.475Z,27.80
2022-09-13T16:17:26.779Z,27.70
2022-09-13T16:19:55.067Z,27.40
2022-09-13T16:22:22.761Z,27.20
2022-09-13T16:24:49.970Z,27.00
2022-09-13T16:27:19.257Z,26.80
2022-09-13T16:29:46.744Z,26.60
2022-09-13T16:32:14.196Z,26.40
2022-09-13T16:34:41.121Z,26.20
2022-09-13T16:37:08.037Z,25.90
2022-09-13T16:39:35.122Z,25.80
2022-09-13T16:42:02.041Z,25.60
2022-09-13T16:44:28.981Z,25.60
2022-09-13T16:46:56.578Z,25.20
2022-09-13T16:52:15.637Z,24.90
2022-09-13T16:54:46.593Z,24.80
2022-09-13T16:57:13.947Z,24.50
2022-09-13T16:59:41.653Z,24.40
2022-09-13T17:02:11.365Z,24.30
2022-09-13T17:04:38.351Z,24.10
2022-09-13T17:07:07.294Z,24.00
2022-09-13T17:09:35.106Z,23.90
2022-09-13T17:12:02.572Z,23.80
2022-09-13T17:14:30.008Z,23.70
2022-09-13T17:16:58.106Z,23.50
2022-09-13T17:19:33.557Z,23.40
2022-09-13T17:22:03.632Z,23.30
2022-09-13T17:24:31.421Z,23.20
2022-09-13T17:26:58.996Z,23.20
2022-09-13T17:29:31.239Z,23.20
2022-09-13T17:31:59.786Z,22.90
2022-09-13T17:34:26.804Z,22.80
2022-09-13T17:37:18.919Z,22.70
2022-09-13T17:39:46.921Z,22.60
2022-09-13T17:42:14.253Z,22.40
2022-09-13T17:44:41.075Z,22.50
2022-09-13T17:47:08.229Z,22.40
2022-09-13T17:49:35.177Z,22.30
2022-09-13T17:52:03.056Z,22.30
2022-09-13T17:54:30.100Z,22.20
2022-09-13T17:56:56.923Z,22.10
2022-09-13T17:59:24.088Z,21.90
2022-09-13T18:01:53.752Z,22.00
2022-09-13T18:04:23.329Z,21.90
2022-09-13T18:06:52.882Z,21.70
2022-09-13T18:09:20.370Z,21.90
2022-09-13T18:11:47.379Z,21.70
2022-09-13T18:14:16.716Z,21.80
2022-09-13T18:16:45.000Z,21.70
2022-09-13T18:19:12.370Z,21.70
2022-09-13T18:21:40.150Z,21.60
2022-09-13T18:24:07.292Z,21.60
2022-09-13T18:26:35.269Z,21.50
2022-09-13T18:29:06.365Z,21.50
2022-09-13T18:31:35.865Z,21.40
2022-09-13T18:34:07.023Z,21.40
2022-09-13T18:36:35.336Z,21.40
2022-09-13T18:39:04.849Z,21.40
2022-09-13T18:41:40.339Z,21.30
2022-09-13T18:44:10.144Z,21.30
2022-09-13T18:46:37.691Z,21.30
2022-09-13T18:49:06.447Z,21.20
2022-09-13T18:51:45.219Z,21.20
2022-09-13T18:54:16.000Z,21.20
2022-09-13T18:57:07.823Z,21.20
2022-09-13T18:59:36.032Z,21.10
2022-09-13T19:02:03.006Z,21.00
2022-09-13T19:04:31.863Z,21.00
2022-09-13T19:06:59.065Z,20.90
2022-09-13T19:09:25.933Z,20.90
2022-09-13T19:11:55.040Z,20.90
2022-09-13T19:14:28.617Z,20.80
2022-09-13T19:17:00.998Z,20.80
2022-09-13T19:19:30.210Z,20.80
2022-09-13T19:21:57.455Z,20.70
2022-09-13T19:24:25.300Z,20.70
2022-09-13T19:26:53.635Z,20.60
2022-09-13T19:29:24.261Z,20.60
2022-09-13T19:32:16.205Z,20.60
2022-09-13T19:34:43.065Z,20.40
2022-09-13T19:37:09.946Z,20.50
2022-09-13T19:39:36.922Z,20.50
2022-09-13T19:42:04.011Z,20.40
2022-09-13T19:44:31.208Z,20.40
2022-09-13T19:47:36.137Z,20.40
2022-09-13T19:49:45.605Z,20.40
2022-09-13T19:52:12.701Z,20.40
2022-09-13T19:54:39.835Z,20.40
2022-09-13T19:57:09.818Z,20.40
2022-09-13T19:59:38.007Z,20.40
2022-09-13T20:02:05.085Z,20.30
2022-09-13T20:04:32.157Z,20.30
2022-09-13T20:06:59.792Z,20.30
2022-09-13T20:09:26.960Z,20.20
2022-09-13T20:12:00.101Z,20.20
2022-09-13T20:14:27.974Z,20.20
2022-09-13T20:16:54.911Z,20.10
2022-09-13T20:19:42.499Z,20.10
2022-09-13T20:22:09.800Z,20.10
2022-09-13T20:24:37.110Z,20.10
2022-09-13T20:27:04.214Z,20.00
2022-09-13T20:29:31.826Z,20.00
2022-09-13T20:32:00.003Z,19.90
2022-09-13T20:34:27.131Z,19.90
2022-09-13T20:36:54.122Z,19.80
2022-09-13T20:39:21.057Z,19.80
2022-09-13T20:41:49.965Z,19.70
2022-09-13T20:44:17.310Z,19.80
2022-09-13T20:46:44.364Z,19.70
2022-09-13T20:49:11.711Z,19.60
2022-09-13T20:51:39.077Z,19.60
2022-09-13T20:54:07.155Z,19.60
2022-09-13T20:56:35.443Z,19.50
2022-09-13T20:59:03.069Z,19.50
2022-09-13T21:01:31.914Z,19.50
2022-09-13T21:04:00.117Z,19.30
2022-09-13T21:06:29.823Z,19.40
2022-09-13T21:08:59.501Z,19.40
2022-09-13T21:11:35.031Z,19.30
2022-09-13T21:14:08.370Z,19.30
2022-09-13T21:16:39.379Z,19.30
2022-09-13T21:19:07.285Z,19.20
2022-09-13T21:21:38.116Z,19.20
2022-09-13T21:24:09.633Z,19.20
2022-09-13T21:26:39.736Z,19.20
2022-09-13T21:29:06.660Z,19.10
2022-09-13T21:31:33.957Z,19.10
2022-09-13T21:34:14.443Z,19.10
2022-09-13T21:36:41.610Z,19.00
2022-09-13T21:39:08.915Z,19.00
2022-09-13T21:41:36.351Z,19.00
2022-09-13T21:44:03.444Z,18.90
2022-09-13T21:46:35.161Z,18.90
2022-09-13T21:49:06.759Z,18.90
2022-09-13T21:51:46.629Z,18.90
2022-09-13T21:54:20.980Z,19.10
2022-09-13T21:56:54.146Z,18.90
2022-09-13T21:59:23.366Z,18.80
2022-09-13T22:01:52.217Z,18.80
2022-09-13T22:04:24.233Z,18.70
2022-09-13T22:06:53.375Z,18.70
2022-09-13T22:09:23.231Z,18.70
2022-09-13T22:11:50.251Z,18.70
2022-09-13T22:14:19.997Z,18.60
2022-09-13T22:16:47.918Z,18.70
2022-09-13T22:19:26.958Z,18.60
2022-09-13T22:21:59.184Z,18.60
2022-09-13T22:24:31.691Z,18.60
2022-09-13T22:26:59.383Z,18.50
2022-09-13T22:29:27.293Z,18.60
2022-09-13T22:31:54.342Z,18.50
2022-09-13T22:34:46.777Z,18.50
2022-09-13T22:37:14.012Z,18.50
2022-09-13T22:39:41.158Z,18.40
2022-09-13T22:42:08.163Z,18.40
2022-09-13T22:44:34.998Z,18.40
2022-09-13T22:47:01.977Z,18.40
2022-09-13T22:49:29.044Z,18.40
2022-09-13T22:51:55.916Z,18.30
2022-09-13T22:54:22.862Z,18.30
2022-09-13T22:56:49.754Z,18.30
2022-09-13T22:59:20.218Z,18.30
2022-09-13T23:01:47.464Z,18.30
2022-09-13T23:04:14.671Z,18.30
2022-09-13T23:06:44.028Z,18.40
2022-09-13T23:09:14.469Z,18.20
2022-09-13T23:11:42.086Z,18.20
2022-09-13T23:14:12.575Z,18.20
2022-09-13T23:16:50.282Z,18.20
2022-09-13T23:19:21.869Z,18.20
2022-09-13T23:21:49.266Z,18.10
2022-09-13T23:24:18.641Z,18.10
2022-09-13T23:26:48.932Z,18.10
2022-09-13T23:29:21.971Z,18.10
2022-09-13T23:31:50.018Z,18.00
2022-09-13T23:34:17.633Z,18.10
2022-09-13T23:36:46.270Z,18.10
2022-09-13T23:39:17.512Z,18.00
2022-09-13T23:41:46.590Z,18.00
2022-09-13T23:44:14.245Z,18.00
2022-09-13T23:46:41.498Z,18.00
2022-09-13T23:49:08.432Z,18.00
2022-09-13T23:51:35.366Z,18.00
2022-09-13T23:54:02.912Z,18.00
2022-09-13T23:56:32.420Z,18.00
2022-09-13T23:59:03.703Z,18.00
